sensor_id;sensor_type;location;lat;lon;timestamp;temperature;humidity
9971;DHT22;5026;51.494;11.974;2023-06-22T00:02:07;23.00;99.90
9971;DHT22;5026;51.494;11.974;2023-06-22T00:04:34;22.80;99.90
9971;DHT22;5026;51.494;11.974;2023-06-22T00:07:03;23.00;99.90
9971;DHT22;5026;51.494;11.974;2023-06-22T00:09:31;23.00;99.90
9971;DHT22;5026;51.494;11.974;2023-06-22T00:11:58;23.00;99.90
9971;DHT22;5026;51.494;11.974;2023-06-22T00:16:52;22.90;99.90
9971;DHT22;5026;51.494;11.974;2023-06-22T00:19:24;22.90;99.90
9971;DHT22;5026;51.494;11.974;2023-06-22T00:21:51;23.00;99.90
9971;DHT22;5026;51.494;11.974;2023-06-22T00:24:21;23.00;99.90
9971;DHT22;5026;51.494;11.974;2023-06-22T00:26:48;22.90;99.90
9971;DHT22;5026;51.494;11.974;2023-06-22T00:29:15;22.90;99.90
9971;DHT22;5026;51.494;11.974;2023-06-22T00:31:44;22.80;99.90
9971;DHT22;5026;51.494;11.974;2023-06-22T00:34:11;22.80;99.90
9971;DHT22;5026;51.494;11.974;2023-06-22T00:36:37;22.70;99.90
9971;DHT22;5026;51.494;11.974;2023-06-22T00:39:06;22.70;99.90
9971;DHT22;5026;51.494;11.974;2023-06-22T00:41:35;22.70;99.90
9971;DHT22;5026;51.494;11.974;2023-06-22T00:44:02;22.80;99.90
9971;DHT22;5026;51.494;11.974;2023-06-22T00:46:29;22.80;99.90
9971;DHT22;5026;51.494;11.974;2023-06-22T00:48:56;22.80;99.90
9971;DHT22;5026;51.494;11.974;2023-06-22T00:51:23;22.80;99.90
9971;DHT22;5026;51.494;11.974;2023-06-22T00:53:52;22.80;99.90
9971;DHT22;5026;51.494;11.974;2023-06-22T00:56:19;22.70;99.90
9971;DHT22;5026;51.494;11.974;2023-06-22T00:58:51;22.70;99.90
9971;DHT22;5026;51.494;11.974;2023-06-22T01:01:20;22.60;99.90
9971;DHT22;5026;51.494;11.974;2023-06-22T01:03:49;22.60;99.90
9971;DHT22;5026;51.494;11.974;2023-06-22T01:06:24;22.60;99.90
9971;DHT22;5026;51.494;11.974;2023-06-22T01:09:00;22.50;99.90
9971;DHT22;5026;51.494;11.974;2023-06-22T01:11:34;22.50;99.90
9971;DHT22;5026;51.494;11.974;2023-06-22T01:14:10;22.50;99.90
9971;DHT22;5026;51.494;11.974;2023-06-22T01:16:41;22.40;99.90
9971;DHT22;5026;51.494;11.974;2023-06-22T01:19:29;22.40;99.90
9971;DHT22;5026;51.494;11.974;2023-06-22T01:22:04;22.40;99.90
9971;DHT22;5026;51.494;11.974;2023-06-22T01:24:39;22.50;99.90
9971;DHT22;5026;51.494;11.974;2023-06-22T01:27:18;22.50;99.90
9971;DHT22;5026;51.494;11.974;2023-06-22T01:29:58;22.50;99.90
9971;DHT22;5026;51.494;11.974;2023-06-22T01:32:32;22.50;99.90
9971;DHT22;5026;51.494;11.974;2023-06-22T01:35:01;22.50;99.90
9971;DHT22;5026;51.494;11.974;2023-06-22T01:37:29;22.50;99.90
9971;DHT22;5026;51.494;11.974;2023-06-22T01:40:01;22.40;99.90
9971;DHT22;5026;51.494;11.974;2023-06-22T01:42:30;22.50;99.90
9971;DHT22;5026;51.494;11.974;2023-06-22T01:44:59;22.50;99.90
9971;DHT22;5026;51.494;11.974;2023-06-22T01:47:27;22.40;99.90
9971;DHT22;5026;51.494;11.974;2023-06-22T01:49:54;22.50;99.90
9971;DHT22;5026;51.494;11.974;2023-06-22T01:52:21;22.40;99.90
9971;DHT22;5026;51.494;11.974;2023-06-22T01:54:48;22.30;99.90
9971;DHT22;5026;51.494;11.974;2023-06-22T01:57:16;22.20;99.90
9971;DHT22;5026;51.494;11.974;2023-06-22T01:59:52;22.10;99.90
9971;DHT22;5026;51.494;11.974;2023-06-22T02:02:21;22.00;99.90
9971;DHT22;5026;51.494;11.974;2023-06-22T02:04:57;22.00;99.90
9971;DHT22;5026;51.494;11.974;2023-06-22T02:07:29;21.90;99.90
9971;DHT22;5026;51.494;11.974;2023-06-22T02:09:59;21.90;99.90
9971;DHT22;5026;51.494;11.974;2023-06-22T02:12:27;21.90;99.90
9971;DHT22;5026;51.494;11.974;2023-06-22T02:14:56;21.90;99.90
9971;DHT22;5026;51.494;11.974;2023-06-22T02:17:28;21.80;99.90
9971;DHT22;5026;51.494;11.974;2023-06-22T02:19:58;21.70;99.90
9971;DHT22;5026;51.494;11.974;2023-06-22T02:22:25;21.70;99.90
9971;DHT22;5026;51.494;11.974;2023-06-22T02:24:52;21.60;99.90
9971;DHT22;5026;51.494;11.974;2023-06-22T02:27:19;21.60;99.90
9971;DHT22;5026;51.494;11.974;2023-06-22T02:29:46;21.40;99.90
9971;DHT22;5026;51.494;11.974;2023-06-22T02:32:13;21.30;99.90
9971;DHT22;5026;51.494;11.974;2023-06-22T02:34:44;21.30;99.90
9971;DHT22;5026;51.494;11.974;2023-06-22T02:37:13;21.20;99.90
9971;DHT22;5026;51.494;11.974;2023-06-22T02:42:08;21.00;99.90
9971;DHT22;5026;51.494;11.974;2023-06-22T02:44:36;21.00;99.90
9971;DHT22;5026;51.494;11.974;2023-06-22T02:47:03;20.90;99.90
9971;DHT22;5026;51.494;11.974;2023-06-22T02:49:30;20.80;99.90
9971;DHT22;5026;51.494;11.974;2023-06-22T02:51:59;20.80;99.90
9971;DHT22;5026;51.494;11.974;2023-06-22T02:54:26;20.70;99.90
9971;DHT22;5026;51.494;11.974;2023-06-22T02:56:52;20.70;99.90
9971;DHT22;5026;51.494;11.974;2023-06-22T02:59:19;20.50;99.90
9971;DHT22;5026;51.494;11.974;2023-06-22T03:01:49;20.60;99.90
9971;DHT22;5026;51.494;11.974;2023-06-22T03:04:16;20.60;99.90
9971;DHT22;5026;51.494;11.974;2023-06-22T03:06:43;20.50;99.90
9971;DHT22;5026;51.494;11.974;2023-06-22T03:09:11;20.50;99.90
9971;DHT22;5026;51.494;11.974;2023-06-22T03:11:38;20.60;99.90
9971;DHT22;5026;51.494;11.974;2023-06-22T03:14:05;20.60;99.90
9971;DHT22;5026;51.494;11.974;2023-06-22T03:16:32;20.60;99.90
9971;DHT22;5026;51.494;11.974;2023-06-22T03:21:28;20.50;99.90
9971;DHT22;5026;51.494;11.974;2023-06-22T03:26:24;20.60;99.90
9971;DHT22;5026;51.494;11.974;2023-06-22T03:28:52;20.50;99.90
9971;DHT22;5026;51.494;11.974;2023-06-22T03:31:19;20.60;99.90
9971;DHT22;5026;51.494;11.974;2023-06-22T03:33:47;20.50;99.90
9971;DHT22;5026;51.494;11.974;2023-06-22T03:36:14;20.50;99.90
9971;DHT22;5026;51.494;11.974;2023-06-22T03:38:42;20.50;99.90
9971;DHT22;5026;51.494;11.974;2023-06-22T03:41:08;20.50;99.90
9971;DHT22;5026;51.494;11.974;2023-06-22T03:43:37;20.50;99.90
9971;DHT22;5026;51.494;11.974;2023-06-22T03:46:04;20.40;99.90
9971;DHT22;5026;51.494;11.974;2023-06-22T03:48:31;20.50;99.90
9971;DHT22;5026;51.494;11.974;2023-06-22T03:50:58;20.50;99.90
9971;DHT22;5026;51.494;11.974;2023-06-22T03:53:26;20.60;99.90
9971;DHT22;5026;51.494;11.974;2023-06-22T03:55:52;20.60;99.90
9971;DHT22;5026;51.494;11.974;2023-06-22T03:58:20;20.60;99.90
9971;DHT22;5026;51.494;11.974;2023-06-22T04:00:50;20.60;99.90
9971;DHT22;5026;51.494;11.974;2023-06-22T04:03:17;20.80;99.90
9971;DHT22;5026;51.494;11.974;2023-06-22T04:10:39;21.40;99.90
9971;DHT22;5026;51.494;11.974;2023-06-22T04:13:06;21.60;99.90
9971;DHT22;5026;51.494;11.974;2023-06-22T04:15:34;21.80;99.90
9971;DHT22;5026;51.494;11.974;2023-06-22T04:18:02;21.90;99.90
9971;DHT22;5026;51.494;11.974;2023-06-22T04:20:29;21.80;99.90
9971;DHT22;5026;51.494;11.974;2023-06-22T04:22:57;21.60;99.90
9971;DHT22;5026;51.494;11.974;2023-06-22T04:25:23;21.70;99.90
9971;DHT22;5026;51.494;11.974;2023-06-22T04:30:17;21.90;99.90
9971;DHT22;5026;51.494;11.974;2023-06-22T04:32:45;21.70;99.90
9971;DHT22;5026;51.494;11.974;2023-06-22T04:35:23;21.80;99.90
9971;DHT22;5026;51.494;11.974;2023-06-22T04:37:50;21.90;99.90
9971;DHT22;5026;51.494;11.974;2023-06-22T04:40:21;22.10;99.90
9971;DHT22;5026;51.494;11.974;2023-06-22T04:42:48;22.10;99.90
9971;DHT22;5026;51.494;11.974;2023-06-22T04:45:19;22.00;99.90
9971;DHT22;5026;51.494;11.974;2023-06-22T04:47:46;22.00;99.90
9971;DHT22;5026;51.494;11.974;2023-06-22T04:50:13;22.00;99.90
9971;DHT22;5026;51.494;11.974;2023-06-22T04:52:41;21.70;99.90
9971;DHT22;5026;51.494;11.974;2023-06-22T04:55:09;21.80;99.90
9971;DHT22;5026;51.494;11.974;2023-06-22T05:00:06;21.90;99.90
9971;DHT22;5026;51.494;11.974;2023-06-22T05:02:43;22.00;99.90
9971;DHT22;5026;51.494;11.974;2023-06-22T05:05:10;22.20;99.90
9971;DHT22;5026;51.494;11.974;2023-06-22T05:07:41;22.20;99.90
9971;DHT22;5026;51.494;11.974;2023-06-22T05:10:10;22.30;99.90
9971;DHT22;5026;51.494;11.974;2023-06-22T05:12:39;22.40;99.90
9971;DHT22;5026;51.494;11.974;2023-06-22T05:15:07;21.70;99.90
9971;DHT22;5026;51.494;11.974;2023-06-22T05:20:01;20.90;99.90
9971;DHT22;5026;51.494;11.974;2023-06-22T05:22:32;20.90;99.90
9971;DHT22;5026;51.494;11.974;2023-06-22T05:25:00;21.10;99.90
9971;DHT22;5026;51.494;11.974;2023-06-22T05:34:06;21.30;99.90
9971;DHT22;5026;51.494;11.974;2023-06-22T05:36:32;21.70;99.90
9971;DHT22;5026;51.494;11.974;2023-06-22T05:41:28;23.00;99.90
9971;DHT22;5026;51.494;11.974;2023-06-22T05:43:55;23.90;99.90
9971;DHT22;5026;51.494;11.974;2023-06-22T05:46:23;23.50;99.90
9971;DHT22;5026;51.494;11.974;2023-06-22T05:48:49;23.00;99.90
9971;DHT22;5026;51.494;11.974;2023-06-22T05:51:16;22.30;99.90
9971;DHT22;5026;51.494;11.974;2023-06-22T05:53:43;22.60;99.90
9971;DHT22;5026;51.494;11.974;2023-06-22T05:58:43;22.80;99.90
9971;DHT22;5026;51.494;11.974;2023-06-22T06:01:10;23.20;99.90
9971;DHT22;5026;51.494;11.974;2023-06-22T06:03:37;24.50;99.90
9971;DHT22;5026;51.494;11.974;2023-06-22T06:06:06;26.40;99.90
9971;DHT22;5026;51.494;11.974;2023-06-22T06:08:33;26.00;99.90
9971;DHT22;5026;51.494;11.974;2023-06-22T06:11:00;26.40;99.90
9971;DHT22;5026;51.494;11.974;2023-06-22T06:13:26;26.40;99.90
9971;DHT22;5026;51.494;11.974;2023-06-22T06:15:55;28.50;99.90
9971;DHT22;5026;51.494;11.974;2023-06-22T06:18:22;26.60;99.90
9971;DHT22;5026;51.494;11.974;2023-06-22T06:20:49;26.70;99.90
9971;DHT22;5026;51.494;11.974;2023-06-22T06:23:16;27.00;99.90
9971;DHT22;5026;51.494;11.974;2023-06-22T06:25:43;26.50;99.90
9971;DHT22;5026;51.494;11.974;2023-06-22T06:28:10;25.50;99.90
9971;DHT22;5026;51.494;11.974;2023-06-22T06:30:37;24.70;99.90
9971;DHT22;5026;51.494;11.974;2023-06-22T06:33:05;24.10;99.90
9971;DHT22;5026;51.494;11.974;2023-06-22T06:35:34;23.90;99.90
9971;DHT22;5026;51.494;11.974;2023-06-22T06:38:01;23.80;99.90
9971;DHT22;5026;51.494;11.974;2023-06-22T06:40:28;24.10;99.90
9971;DHT22;5026;51.494;11.974;2023-06-22T06:42:55;24.70;99.90
9971;DHT22;5026;51.494;11.974;2023-06-22T06:45:23;25.00;99.90
9971;DHT22;5026;51.494;11.974;2023-06-22T06:47:50;24.70;99.90
9971;DHT22;5026;51.494;11.974;2023-06-22T06:50:19;24.40;99.90
9971;DHT22;5026;51.494;11.974;2023-06-22T06:52:46;24.90;99.90
9971;DHT22;5026;51.494;11.974;2023-06-22T06:55:12;25.00;99.90
9971;DHT22;5026;51.494;11.974;2023-06-22T06:57:40;26.40;99.90
9971;DHT22;5026;51.494;11.974;2023-06-22T07:00:09;26.30;99.90
9971;DHT22;5026;51.494;11.974;2023-06-22T07:02:38;26.00;99.90
9971;DHT22;5026;51.494;11.974;2023-06-22T07:05:06;26.40;99.90
9971;DHT22;5026;51.494;11.974;2023-06-22T07:07:35;26.60;99.90
9971;DHT22;5026;51.494;11.974;2023-06-22T07:10:02;26.30;99.90
9971;DHT22;5026;51.494;11.974;2023-06-22T07:12:29;25.50;99.90
9971;DHT22;5026;51.494;11.974;2023-06-22T07:15:02;25.90;99.90
9971;DHT22;5026;51.494;11.974;2023-06-22T07:17:29;26.50;99.90
9971;DHT22;5026;51.494;11.974;2023-06-22T07:19:56;26.00;99.90
9971;DHT22;5026;51.494;11.974;2023-06-22T07:24:52;25.80;99.90
9971;DHT22;5026;51.494;11.974;2023-06-22T07:27:19;25.90;99.90
9971;DHT22;5026;51.494;11.974;2023-06-22T07:29:46;27.10;99.90
9971;DHT22;5026;51.494;11.974;2023-06-22T07:32:13;28.20;99.90
9971;DHT22;5026;51.494;11.974;2023-06-22T07:34:40;28.50;99.80
9971;DHT22;5026;51.494;11.974;2023-06-22T07:42:05;28.40;99.40
9971;DHT22;5026;51.494;11.974;2023-06-22T07:44:32;30.10;98.80
9971;DHT22;5026;51.494;11.974;2023-06-22T07:46:58;30.90;97.70
9971;DHT22;5026;51.494;11.974;2023-06-22T07:49:27;32.00;95.80
9971;DHT22;5026;51.494;11.974;2023-06-22T07:51:54;32.50;94.50
9971;DHT22;5026;51.494;11.974;2023-06-22T07:54:21;32.80;92.90
9971;DHT22;5026;51.494;11.974;2023-06-22T07:56:48;34.40;92.30
9971;DHT22;5026;51.494;11.974;2023-06-22T07:59:16;36.10;90.20
9971;DHT22;5026;51.494;11.974;2023-06-22T08:01:43;38.30;84.20
9971;DHT22;5026;51.494;11.974;2023-06-22T08:06:36;33.20;80.80
9971;DHT22;5026;51.494;11.974;2023-06-22T08:09:03;33.30;84.00
9971;DHT22;5026;51.494;11.974;2023-06-22T08:11:30;35.40;83.00
9971;DHT22;5026;51.494;11.974;2023-06-22T08:16:25;33.90;83.00
9971;DHT22;5026;51.494;11.974;2023-06-22T08:18:52;36.00;79.90
9971;DHT22;5026;51.494;11.974;2023-06-22T08:21:20;35.40;77.40
9971;DHT22;5026;51.494;11.974;2023-06-22T08:23:47;32.50;81.00
9971;DHT22;5026;51.494;11.974;2023-06-22T08:26:14;34.80;80.30
9971;DHT22;5026;51.494;11.974;2023-06-22T08:28:41;36.50;78.30
9971;DHT22;5026;51.494;11.974;2023-06-22T08:31:08;37.20;76.90
9971;DHT22;5026;51.494;11.974;2023-06-22T08:33:36;36.50;74.30
9971;DHT22;5026;51.494;11.974;2023-06-22T08:36:04;34.20;76.20
9971;DHT22;5026;51.494;11.974;2023-06-22T08:38:31;32.00;78.70
9971;DHT22;5026;51.494;11.974;2023-06-22T08:40:58;32.00;81.30
9971;DHT22;5026;51.494;11.974;2023-06-22T08:43:25;33.20;80.10
9971;DHT22;5026;51.494;11.974;2023-06-22T08:45:52;32.80;79.80
9971;DHT22;5026;51.494;11.974;2023-06-22T08:48:19;32.20;81.20
9971;DHT22;5026;51.494;11.974;2023-06-22T08:50:47;31.20;82.60
9971;DHT22;5026;51.494;11.974;2023-06-22T08:53:14;31.90;82.10
9971;DHT22;5026;51.494;11.974;2023-06-22T08:55:40;33.60;80.70
9971;DHT22;5026;51.494;11.974;2023-06-22T08:58:07;34.90;78.50
9971;DHT22;5026;51.494;11.974;2023-06-22T09:00:34;35.60;77.00
9971;DHT22;5026;51.494;11.974;2023-06-22T09:03:01;34.60;77.40
9971;DHT22;5026;51.494;11.974;2023-06-22T09:05:29;34.30;77.50
9971;DHT22;5026;51.494;11.974;2023-06-22T09:07:57;34.80;76.70
9971;DHT22;5026;51.494;11.974;2023-06-22T09:10:25;35.80;75.00
9971;DHT22;5026;51.494;11.974;2023-06-22T09:12:51;35.40;74.30
9971;DHT22;5026;51.494;11.974;2023-06-22T09:17:46;36.30;74.50
9971;DHT22;5026;51.494;11.974;2023-06-22T09:20:13;33.80;75.90
9971;DHT22;5026;51.494;11.974;2023-06-22T09:22:40;36.00;74.60
9971;DHT22;5026;51.494;11.974;2023-06-22T09:25:09;35.90;72.60
9971;DHT22;5026;51.494;11.974;2023-06-22T09:27:36;35.70;73.00
9971;DHT22;5026;51.494;11.974;2023-06-22T09:30:04;34.50;74.40
9971;DHT22;5026;51.494;11.974;2023-06-22T09:35:02;34.60;74.00
9971;DHT22;5026;51.494;11.974;2023-06-22T09:37:28;34.50;74.00
9971;DHT22;5026;51.494;11.974;2023-06-22T09:39:55;34.60;75.10
9971;DHT22;5026;51.494;11.974;2023-06-22T09:42:23;34.90;74.00
9971;DHT22;5026;51.494;11.974;2023-06-22T09:44:50;33.10;75.20
9971;DHT22;5026;51.494;11.974;2023-06-22T09:47:17;33.60;74.60
9971;DHT22;5026;51.494;11.974;2023-06-22T09:52:11;33.90;74.00
9971;DHT22;5026;51.494;11.974;2023-06-22T09:57:05;32.10;76.40
9971;DHT22;5026;51.494;11.974;2023-06-22T09:59:33;32.30;76.30
9971;DHT22;5026;51.494;11.974;2023-06-22T10:06:54;30.70;76.70
9971;DHT22;5026;51.494;11.974;2023-06-22T10:09:21;29.70;78.60
9971;DHT22;5026;51.494;11.974;2023-06-22T10:11:48;29.70;78.70
9971;DHT22;5026;51.494;11.974;2023-06-22T10:14:15;30.10;78.90
9971;DHT22;5026;51.494;11.974;2023-06-22T10:16:43;31.00;77.60
9971;DHT22;5026;51.494;11.974;2023-06-22T10:19:10;30.80;76.70
9971;DHT22;5026;51.494;11.974;2023-06-22T10:21:37;30.00;77.90
9971;DHT22;5026;51.494;11.974;2023-06-22T10:24:04;29.50;77.90
9971;DHT22;5026;51.494;11.974;2023-06-22T10:26:32;29.90;78.90
9971;DHT22;5026;51.494;11.974;2023-06-22T10:29:00;30.00;78.70
9971;DHT22;5026;51.494;11.974;2023-06-22T10:31:27;30.40;78.70
9971;DHT22;5026;51.494;11.974;2023-06-22T10:33:55;31.00;78.10
9971;DHT22;5026;51.494;11.974;2023-06-22T10:36:22;31.40;77.10
9971;DHT22;5026;51.494;11.974;2023-06-22T10:41:18;31.00;77.20
9971;DHT22;5026;51.494;11.974;2023-06-22T10:43:44;30.80;76.90
9971;DHT22;5026;51.494;11.974;2023-06-22T10:46:12;30.40;77.80
9971;DHT22;5026;51.494;11.974;2023-06-22T10:48:39;30.70;76.20
9971;DHT22;5026;51.494;11.974;2023-06-22T10:51:07;31.00;76.00
9971;DHT22;5026;51.494;11.974;2023-06-22T10:53:34;30.60;76.60
9971;DHT22;5026;51.494;11.974;2023-06-22T10:56:01;30.10;76.90
9971;DHT22;5026;51.494;11.974;2023-06-22T10:58:27;30.70;76.40
9971;DHT22;5026;51.494;11.974;2023-06-22T11:00:54;30.70;76.40
9971;DHT22;5026;51.494;11.974;2023-06-22T11:03:21;31.20;75.70
9971;DHT22;5026;51.494;11.974;2023-06-22T11:05:48;30.90;75.50
9971;DHT22;5026;51.494;11.974;2023-06-22T11:08:16;30.60;75.10
9971;DHT22;5026;51.494;11.974;2023-06-22T11:10:44;30.50;75.30
9971;DHT22;5026;51.494;11.974;2023-06-22T11:13:11;30.80;74.80
9971;DHT22;5026;51.494;11.974;2023-06-22T11:15:38;30.30;74.10
9971;DHT22;5026;51.494;11.974;2023-06-22T11:18:05;29.90;74.90
9971;DHT22;5026;51.494;11.974;2023-06-22T11:20:33;30.20;75.10
9971;DHT22;5026;51.494;11.974;2023-06-22T11:23:04;30.60;75.00
9971;DHT22;5026;51.494;11.974;2023-06-22T11:25:32;30.20;74.80
9971;DHT22;5026;51.494;11.974;2023-06-22T11:28:01;30.70;74.50
9971;DHT22;5026;51.494;11.974;2023-06-22T11:32:56;30.50;74.60
9971;DHT22;5026;51.494;11.974;2023-06-22T11:35:23;30.40;74.20
9971;DHT22;5026;51.494;11.974;2023-06-22T11:37:50;30.60;74.10
9971;DHT22;5026;51.494;11.974;2023-06-22T11:40:17;30.20;74.70
9971;DHT22;5026;51.494;11.974;2023-06-22T11:42:45;29.90;74.60
9971;DHT22;5026;51.494;11.974;2023-06-22T11:45:11;29.90;75.50
9971;DHT22;5026;51.494;11.974;2023-06-22T11:47:38;30.30;75.70
9971;DHT22;5026;51.494;11.974;2023-06-22T11:50:06;30.50;76.20
9971;DHT22;5026;51.494;11.974;2023-06-22T11:52:33;30.40;76.00
9971;DHT22;5026;51.494;11.974;2023-06-22T11:55:01;30.20;76.10
9971;DHT22;5026;51.494;11.974;2023-06-22T11:57:29;30.70;76.90
9971;DHT22;5026;51.494;11.974;2023-06-22T11:59:58;31.10;76.60
9971;DHT22;5026;51.494;11.974;2023-06-22T12:02:24;30.80;76.50
9971;DHT22;5026;51.494;11.974;2023-06-22T12:07:21;30.50;76.20
9971;DHT22;5026;51.494;11.974;2023-06-22T12:12:15;29.60;76.70
9971;DHT22;5026;51.494;11.974;2023-06-22T12:14:42;29.80;77.30
9971;DHT22;5026;51.494;11.974;2023-06-22T12:17:10;30.00;76.90
9971;DHT22;5026;51.494;11.974;2023-06-22T12:22:04;29.90;77.20
9971;DHT22;5026;51.494;11.974;2023-06-22T12:24:31;30.00;77.00
9971;DHT22;5026;51.494;11.974;2023-06-22T12:26:58;30.20;77.30
9971;DHT22;5026;51.494;11.974;2023-06-22T12:29:24;30.50;76.40
9971;DHT22;5026;51.494;11.974;2023-06-22T12:31:51;30.70;76.30
9971;DHT22;5026;51.494;11.974;2023-06-22T12:34:20;31.00;76.10
9971;DHT22;5026;51.494;11.974;2023-06-22T12:36:46;31.20;75.40
9971;DHT22;5026;51.494;11.974;2023-06-22T12:39:14;31.20;74.70
9971;DHT22;5026;51.494;11.974;2023-06-22T12:41:41;30.90;75.10
9971;DHT22;5026;51.494;11.974;2023-06-22T12:44:07;30.70;76.40
9971;DHT22;5026;51.494;11.974;2023-06-22T12:46:34;30.80;76.40
9971;DHT22;5026;51.494;11.974;2023-06-22T12:49:03;30.40;76.00
9971;DHT22;5026;51.494;11.974;2023-06-22T12:51:31;30.20;76.00
9971;DHT22;5026;51.494;11.974;2023-06-22T12:53:59;30.50;76.60
9971;DHT22;5026;51.494;11.974;2023-06-22T12:56:26;31.00;76.40
9971;DHT22;5026;51.494;11.974;2023-06-22T12:58:52;31.40;75.50
9971;DHT22;5026;51.494;11.974;2023-06-22T13:01:19;31.30;74.80
9971;DHT22;5026;51.494;11.974;2023-06-22T13:06:13;31.20;75.30
9971;DHT22;5026;51.494;11.974;2023-06-22T13:08:41;31.10;75.30
9971;DHT22;5026;51.494;11.974;2023-06-22T13:11:08;30.80;75.50
9971;DHT22;5026;51.494;11.974;2023-06-22T13:13:35;30.60;75.60
9971;DHT22;5026;51.494;11.974;2023-06-22T13:16:02;30.80;75.60
9971;DHT22;5026;51.494;11.974;2023-06-22T13:18:29;31.00;75.80
9971;DHT22;5026;51.494;11.974;2023-06-22T13:20:56;31.00;75.50
9971;DHT22;5026;51.494;11.974;2023-06-22T13:23:23;30.80;75.70
9971;DHT22;5026;51.494;11.974;2023-06-22T13:25:52;30.60;75.90
9971;DHT22;5026;51.494;11.974;2023-06-22T13:28:19;30.90;75.90
9971;DHT22;5026;51.494;11.974;2023-06-22T13:30:47;31.20;75.80
9971;DHT22;5026;51.494;11.974;2023-06-22T13:33:14;31.40;76.20
9971;DHT22;5026;51.494;11.974;2023-06-22T13:38:09;30.70;75.60
9971;DHT22;5026;51.494;11.974;2023-06-22T13:50:44;30.90;75.00
9971;DHT22;5026;51.494;11.974;2023-06-22T13:53:11;31.00;75.60
9971;DHT22;5026;51.494;11.974;2023-06-22T13:55:38;31.20;75.40
9971;DHT22;5026;51.494;11.974;2023-06-22T13:58:05;31.50;75.30
9971;DHT22;5026;51.494;11.974;2023-06-22T14:00:32;31.70;74.20
9971;DHT22;5026;51.494;11.974;2023-06-22T14:02:59;31.80;73.60
9971;DHT22;5026;51.494;11.974;2023-06-22T14:05:26;31.90;73.80
9971;DHT22;5026;51.494;11.974;2023-06-22T14:07:54;32.00;74.00
9971;DHT22;5026;51.494;11.974;2023-06-22T14:15:15;31.60;73.80
9971;DHT22;5026;51.494;11.974;2023-06-22T14:17:42;31.20;75.00
9971;DHT22;5026;51.494;11.974;2023-06-22T14:20:09;31.10;75.30
9971;DHT22;5026;51.494;11.974;2023-06-22T14:22:36;31.10;75.60
9971;DHT22;5026;51.494;11.974;2023-06-22T14:25:07;31.00;74.90
9971;DHT22;5026;51.494;11.974;2023-06-22T14:32:28;30.90;75.60
9971;DHT22;5026;51.494;11.974;2023-06-22T14:39:50;31.00;75.70
9971;DHT22;5026;51.494;11.974;2023-06-22T14:42:18;31.30;75.60
9971;DHT22;5026;51.494;11.974;2023-06-22T14:44:46;31.00;75.60
9971;DHT22;5026;51.494;11.974;2023-06-22T14:47:14;31.30;75.80
9971;DHT22;5026;51.494;11.974;2023-06-22T14:52:11;31.70;75.10
9971;DHT22;5026;51.494;11.974;2023-06-22T14:54:39;31.60;75.40
9971;DHT22;5026;51.494;11.974;2023-06-22T14:57:06;31.70;75.30
9971;DHT22;5026;51.494;11.974;2023-06-22T14:59:34;31.60;75.60
9971;DHT22;5026;51.494;11.974;2023-06-22T15:02:01;31.80;75.30
9971;DHT22;5026;51.494;11.974;2023-06-22T15:07:00;31.60;75.80
9971;DHT22;5026;51.494;11.974;2023-06-22T15:09:27;31.60;75.50
9971;DHT22;5026;51.494;11.974;2023-06-22T15:11:54;31.30;75.90
9971;DHT22;5026;51.494;11.974;2023-06-22T15:16:49;31.20;75.90
9971;DHT22;5026;51.494;11.974;2023-06-22T15:19:16;31.00;76.30
9971;DHT22;5026;51.494;11.974;2023-06-22T15:24:11;30.80;76.40
9971;DHT22;5026;51.494;11.974;2023-06-22T15:26:38;30.90;76.50
9971;DHT22;5026;51.494;11.974;2023-06-22T15:29:05;31.10;76.60
9971;DHT22;5026;51.494;11.974;2023-06-22T15:31:31;31.10;76.60
9971;DHT22;5026;51.494;11.974;2023-06-22T15:34:00;30.80;76.70
9971;DHT22;5026;51.494;11.974;2023-06-22T15:38:56;30.50;77.20
9971;DHT22;5026;51.494;11.974;2023-06-22T15:41:23;30.30;77.50
9971;DHT22;5026;51.494;11.974;2023-06-22T15:43:50;30.40;77.60
9971;DHT22;5026;51.494;11.974;2023-06-22T15:46:16;30.50;77.40
9971;DHT22;5026;51.494;11.974;2023-06-22T15:48:44;30.70;77.20
9971;DHT22;5026;51.494;11.974;2023-06-22T15:51:12;30.70;77.10
9971;DHT22;5026;51.494;11.974;2023-06-22T15:53:40;30.80;77.40
9971;DHT22;5026;51.494;11.974;2023-06-22T15:56:07;30.60;77.50
9971;DHT22;5026;51.494;11.974;2023-06-22T15:58:35;30.70;77.60
9971;DHT22;5026;51.494;11.974;2023-06-22T16:01:02;30.60;77.30
9971;DHT22;5026;51.494;11.974;2023-06-22T16:03:29;30.40;77.60
9971;DHT22;5026;51.494;11.974;2023-06-22T16:05:56;30.40;77.80
9971;DHT22;5026;51.494;11.974;2023-06-22T16:08:25;30.40;78.00
9971;DHT22;5026;51.494;11.974;2023-06-22T16:10:53;30.40;78.00
9971;DHT22;5026;51.494;11.974;2023-06-22T16:13:20;30.50;78.20
9971;DHT22;5026;51.494;11.974;2023-06-22T16:15:47;30.30;78.20
9971;DHT22;5026;51.494;11.974;2023-06-22T16:18:14;30.20;78.10
9971;DHT22;5026;51.494;11.974;2023-06-22T16:23:11;30.10;78.50
9971;DHT22;5026;51.494;11.974;2023-06-22T16:25:40;30.10;78.40
9971;DHT22;5026;51.494;11.974;2023-06-22T16:28:06;30.10;78.60
9971;DHT22;5026;51.494;11.974;2023-06-22T16:30:33;30.20;78.60
9971;DHT22;5026;51.494;11.974;2023-06-22T16:33:01;30.10;78.80
9971;DHT22;5026;51.494;11.974;2023-06-22T16:35:28;30.10;79.00
9971;DHT22;5026;51.494;11.974;2023-06-22T16:37:58;30.00;79.00
9971;DHT22;5026;51.494;11.974;2023-06-22T16:40:25;29.90;79.20
9971;DHT22;5026;51.494;11.974;2023-06-22T16:42:53;29.90;79.30
9971;DHT22;5026;51.494;11.974;2023-06-22T16:45:21;29.90;79.50
9971;DHT22;5026;51.494;11.974;2023-06-22T16:47:49;30.00;79.60
9971;DHT22;5026;51.494;11.974;2023-06-22T16:50:16;29.90;79.60
9971;DHT22;5026;51.494;11.974;2023-06-22T16:55:12;29.70;80.10
9971;DHT22;5026;51.494;11.974;2023-06-22T16:57:39;29.60;80.30
9971;DHT22;5026;51.494;11.974;2023-06-22T17:00:09;29.50;80.20
9971;DHT22;5026;51.494;11.974;2023-06-22T17:02:42;29.50;80.40
9971;DHT22;5026;51.494;11.974;2023-06-22T17:05:10;29.50;80.60
9971;DHT22;5026;51.494;11.974;2023-06-22T17:07:39;29.40;80.80
9971;DHT22;5026;51.494;11.974;2023-06-22T17:10:13;29.50;80.90
9971;DHT22;5026;51.494;11.974;2023-06-22T17:12:40;29.40;80.90
9971;DHT22;5026;51.494;11.974;2023-06-22T17:15:10;29.40;81.10
9971;DHT22;5026;51.494;11.974;2023-06-22T17:17:38;29.40;81.30
9971;DHT22;5026;51.494;11.974;2023-06-22T17:20:07;29.30;81.40
9971;DHT22;5026;51.494;11.974;2023-06-22T17:25:04;29.30;81.80
9971;DHT22;5026;51.494;11.974;2023-06-22T17:27:33;29.30;82.00
9971;DHT22;5026;51.494;11.974;2023-06-22T17:30:10;29.30;82.20
9971;DHT22;5026;51.494;11.974;2023-06-22T17:32:38;29.20;82.20
9971;DHT22;5026;51.494;11.974;2023-06-22T17:35:05;29.20;82.50
9971;DHT22;5026;51.494;11.974;2023-06-22T17:37:34;29.10;82.60
9971;DHT22;5026;51.494;11.974;2023-06-22T17:40:01;29.10;82.90
9971;DHT22;5026;51.494;11.974;2023-06-22T17:42:29;29.00;82.80
9971;DHT22;5026;51.494;11.974;2023-06-22T17:45:02;29.10;83.10
9971;DHT22;5026;51.494;11.974;2023-06-22T17:47:31;29.00;83.10
9971;DHT22;5026;51.494;11.974;2023-06-22T17:50:04;28.90;83.20
9971;DHT22;5026;51.494;11.974;2023-06-22T17:52:31;28.90;83.50